OICI  Ilam Airport

Add Bookmark

Ilam, Iran

Status IATA
Operational IIL
Latitude Longitude
33° 35' 11" N 46° 24' 17" E
33.586601 46.404800
Local (DST + 5) UTC (GMT + 4)
Aug 22, 2014 02:18 Aug 22, 2014 09:48
Sunrise-Sunset Local UTC
Begin Civil Twilight 06:24 01:54
Sunrise 06:50 02:20
Sunset 08:04 15:34
End Civil Twilight 08:30 16:00

Current Weather

METAR Observed VFR
OICI 220900Z 27010KT CAVOK 34/M03 Q1014 A2995 Fri, Aug 22, 2014 @ 09:00 UTC
(48 Minutes ago)
Visual Flight Rules
Wind Visibility Clouds Conditions
270° at 10 knots (19 kph) 10 km or more
  • Clear skies
  • No significant weather
Temperatures Readings Precipitation
Current Temp 34°C (93°F)
Dewpoint -3°C (27°F)
Humidity 9%
Altimeter 29.94"Hg
Sea Level Pressure 1014mb
Field Elevation 4406.17'
None Recorded

Additional weather within a 185.2km radius of OICI

Map ICAO Location
OIGK 101.5km N (040°)
OICC 109.3km N (039°)
OICK 174.8km E (095°)

24 Hour Weather History

Loading
-

24 Hour Weather Graphs

Loading
-

CheckWX.com is intended as a tool to help pilots better visualize weather data. It is not intended as a substitute for an official weather briefing obtained from a Flight Service Station. CheckWX.com does not meet the FAA requirements for an official pre-flight weather briefing. Therefore, it's important that pilots still call and obtain an official FSS pre-flight weather briefing.